sensor_id;sensor_type;location;lat;lon;timestamp;temperature;humidity
484;DHT22;228;48.922;12.198;2022-10-17T00:01:55;17.20;77.50
484;DHT22;228;48.922;12.198;2022-10-17T00:04:21;17.20;77.70
484;DHT22;228;48.922;12.198;2022-10-17T00:06:47;17.20;77.60
484;DHT22;228;48.922;12.198;2022-10-17T00:09:13;17.20;77.30
484;DHT22;228;48.922;12.198;2022-10-17T00:11:39;17.20;77.80
484;DHT22;228;48.922;12.198;2022-10-17T00:14:05;17.20;77.80
484;DHT22;228;48.922;12.198;2022-10-17T00:16:33;17.20;78.20
484;DHT22;228;48.922;12.198;2022-10-17T00:19:03;17.20;77.10
484;DHT22;228;48.922;12.198;2022-10-17T00:21:30;17.10;77.00
484;DHT22;228;48.922;12.198;2022-10-17T00:23:58;17.10;77.00
484;DHT22;228;48.922;12.198;2022-10-17T00:26:25;17.10;77.00
484;DHT22;228;48.922;12.198;2022-10-17T00:28:52;17.10;77.10
484;DHT22;228;48.922;12.198;2022-10-17T00:31:20;17.10;77.40
484;DHT22;228;48.922;12.198;2022-10-17T00:33:48;17.10;78.00
484;DHT22;228;48.922;12.198;2022-10-17T00:36:20;17.10;78.20
484;DHT22;228;48.922;12.198;2022-10-17T00:38:55;17.10;78.00
484;DHT22;228;48.922;12.198;2022-10-17T00:41:25;17.10;77.90
484;DHT22;228;48.922;12.198;2022-10-17T00:44:05;17.10;77.30
484;DHT22;228;48.922;12.198;2022-10-17T00:46:52;17.10;77.40
484;DHT22;228;48.922;12.198;2022-10-17T00:49:18;16.90;77.50
484;DHT22;228;48.922;12.198;2022-10-17T00:51:58;17.00;78.00
484;DHT22;228;48.922;12.198;2022-10-17T00:54:29;17.00;78.70
484;DHT22;228;48.922;12.198;2022-10-17T00:56:57;17.00;79.80
484;DHT22;228;48.922;12.198;2022-10-17T00:59:27;17.10;79.20
484;DHT22;228;48.922;12.198;2022-10-17T01:02:04;17.10;78.50
484;DHT22;228;48.922;12.198;2022-10-17T01:04:36;17.10;78.10
484;DHT22;228;48.922;12.198;2022-10-17T01:07:04;17.10;77.80
484;DHT22;228;48.922;12.198;2022-10-17T01:09:30;17.10;77.30
484;DHT22;228;48.922;12.198;2022-10-17T01:12:23;17.00;77.30
484;DHT22;228;48.922;12.198;2022-10-17T01:36:37;16.90;78.00
484;DHT22;228;48.922;12.198;2022-10-17T01:47:05;16.80;77.60
484;DHT22;228;48.922;12.198;2022-10-17T01:49:34;16.70;77.10
484;DHT22;228;48.922;12.198;2022-10-17T01:52:07;16.70;76.90
484;DHT22;228;48.922;12.198;2022-10-17T01:54:43;16.60;76.80
484;DHT22;228;48.922;12.198;2022-10-17T01:57:28;16.50;77.80
484;DHT22;228;48.922;12.198;2022-10-17T01:59:57;16.40;76.80
484;DHT22;228;48.922;12.198;2022-10-17T02:02:24;16.40;77.60
484;DHT22;228;48.922;12.198;2022-10-17T02:04:52;16.40;76.60
484;DHT22;228;48.922;12.198;2022-10-17T02:07:20;16.40;76.30
484;DHT22;228;48.922;12.198;2022-10-17T02:09:46;16.30;76.00
484;DHT22;228;48.922;12.198;2022-10-17T02:12:44;16.30;76.50
484;DHT22;228;48.922;12.198;2022-10-17T02:21:16;16.30;77.60
484;DHT22;228;48.922;12.198;2022-10-17T02:24:21;16.20;77.40
484;DHT22;228;48.922;12.198;2022-10-17T02:27:47;16.20;77.20
484;DHT22;228;48.922;12.198;2022-10-17T02:35:28;16.10;77.80
484;DHT22;228;48.922;12.198;2022-10-17T02:37:57;16.10;77.60
484;DHT22;228;48.922;12.198;2022-10-17T02:40:25;16.10;77.30
484;DHT22;228;48.922;12.198;2022-10-17T02:42:55;16.10;77.30
484;DHT22;228;48.922;12.198;2022-10-17T02:45:26;16.10;77.70
484;DHT22;228;48.922;12.198;2022-10-17T02:48:01;16.10;77.90
484;DHT22;228;48.922;12.198;2022-10-17T02:51:20;16.20;78.20
484;DHT22;228;48.922;12.198;2022-10-17T02:53:58;16.20;77.90
484;DHT22;228;48.922;12.198;2022-10-17T02:56:30;16.30;78.80
484;DHT22;228;48.922;12.198;2022-10-17T02:58:59;16.40;78.00
484;DHT22;228;48.922;12.198;2022-10-17T03:01:26;16.40;77.30
484;DHT22;228;48.922;12.198;2022-10-17T03:04:13;16.40;76.90
484;DHT22;228;48.922;12.198;2022-10-17T03:06:41;16.40;76.90
484;DHT22;228;48.922;12.198;2022-10-17T03:09:08;16.40;76.70
484;DHT22;228;48.922;12.198;2022-10-17T03:11:34;16.30;77.80
484;DHT22;228;48.922;12.198;2022-10-17T03:14:00;16.30;78.10
484;DHT22;228;48.922;12.198;2022-10-17T03:16:26;16.40;77.30
484;DHT22;228;48.922;12.198;2022-10-17T03:18:53;16.40;77.40
484;DHT22;228;48.922;12.198;2022-10-17T03:21:19;16.40;77.10
484;DHT22;228;48.922;12.198;2022-10-17T03:23:45;16.30;77.50
484;DHT22;228;48.922;12.198;2022-10-17T03:26:13;16.20;77.70
484;DHT22;228;48.922;12.198;2022-10-17T03:28:39;16.20;76.90
484;DHT22;228;48.922;12.198;2022-10-17T03:31:07;16.20;76.20
484;DHT22;228;48.922;12.198;2022-10-17T03:33:36;16.00;76.60
484;DHT22;228;48.922;12.198;2022-10-17T03:36:11;16.00;76.90
484;DHT22;228;48.922;12.198;2022-10-17T03:38:38;15.90;77.70
484;DHT22;228;48.922;12.198;2022-10-17T03:41:06;15.80;78.00
484;DHT22;228;48.922;12.198;2022-10-17T03:43:33;16.00;78.50
484;DHT22;228;48.922;12.198;2022-10-17T03:46:00;16.00;77.60
484;DHT22;228;48.922;12.198;2022-10-17T03:48:27;16.10;77.40
484;DHT22;228;48.922;12.198;2022-10-17T03:51:05;16.10;77.30
484;DHT22;228;48.922;12.198;2022-10-17T03:53:36;16.10;77.30
484;DHT22;228;48.922;12.198;2022-10-17T03:56:11;16.10;77.00
484;DHT22;228;48.922;12.198;2022-10-17T03:58:39;16.10;78.40
484;DHT22;228;48.922;12.198;2022-10-17T04:01:08;16.10;78.80
484;DHT22;228;48.922;12.198;2022-10-17T04:03:36;16.20;78.10
484;DHT22;228;48.922;12.198;2022-10-17T04:06:03;16.30;77.20
484;DHT22;228;48.922;12.198;2022-10-17T04:08:33;16.30;76.90
484;DHT22;228;48.922;12.198;2022-10-17T04:11:14;16.30;76.60
484;DHT22;228;48.922;12.198;2022-10-17T04:13:42;16.30;76.20
484;DHT22;228;48.922;12.198;2022-10-17T04:16:12;16.30;76.30
484;DHT22;228;48.922;12.198;2022-10-17T04:18:52;16.20;76.60
484;DHT22;228;48.922;12.198;2022-10-17T04:21:21;16.20;76.70
484;DHT22;228;48.922;12.198;2022-10-17T04:23:58;16.10;77.10
484;DHT22;228;48.922;12.198;2022-10-17T04:26:43;16.10;77.00
484;DHT22;228;48.922;12.198;2022-10-17T04:29:10;16.20;75.70
484;DHT22;228;48.922;12.198;2022-10-17T04:31:37;16.10;75.40
484;DHT22;228;48.922;12.198;2022-10-17T04:34:11;16.10;75.40
484;DHT22;228;48.922;12.198;2022-10-17T04:36:39;16.10;76.20
484;DHT22;228;48.922;12.198;2022-10-17T04:39:06;16.10;76.50
484;DHT22;228;48.922;12.198;2022-10-17T04:41:34;16.00;77.60
484;DHT22;228;48.922;12.198;2022-10-17T04:44:01;16.00;78.60
484;DHT22;228;48.922;12.198;2022-10-17T04:46:32;16.00;78.60
484;DHT22;228;48.922;12.198;2022-10-17T04:48:59;16.20;78.10
484;DHT22;228;48.922;12.198;2022-10-17T04:51:25;16.30;77.10
484;DHT22;228;48.922;12.198;2022-10-17T04:54:11;16.40;77.30
484;DHT22;228;48.922;12.198;2022-10-17T04:56:41;16.50;77.00
484;DHT22;228;48.922;12.198;2022-10-17T04:59:07;16.50;76.80
484;DHT22;228;48.922;12.198;2022-10-17T05:01:35;16.50;77.20
484;DHT22;228;48.922;12.198;2022-10-17T05:04:01;16.50;76.50
484;DHT22;228;48.922;12.198;2022-10-17T05:06:28;16.50;76.00
484;DHT22;228;48.922;12.198;2022-10-17T05:09:20;16.60;75.70
484;DHT22;228;48.922;12.198;2022-10-17T05:11:47;16.50;75.30
484;DHT22;228;48.922;12.198;2022-10-17T05:14:14;16.50;75.40
484;DHT22;228;48.922;12.198;2022-10-17T05:16:40;16.50;75.50
484;DHT22;228;48.922;12.198;2022-10-17T05:19:07;16.50;75.70
484;DHT22;228;48.922;12.198;2022-10-17T05:21:39;16.60;76.00
484;DHT22;228;48.922;12.198;2022-10-17T05:24:07;16.50;75.90
484;DHT22;228;48.922;12.198;2022-10-17T05:26:34;16.50;76.00
484;DHT22;228;48.922;12.198;2022-10-17T05:29:00;16.50;76.10
484;DHT22;228;48.922;12.198;2022-10-17T05:31:29;16.50;75.60
484;DHT22;228;48.922;12.198;2022-10-17T05:33:58;16.50;75.80
484;DHT22;228;48.922;12.198;2022-10-17T05:36:25;16.30;76.20
484;DHT22;228;48.922;12.198;2022-10-17T05:38:52;16.30;76.70
484;DHT22;228;48.922;12.198;2022-10-17T05:41:18;16.40;77.00
484;DHT22;228;48.922;12.198;2022-10-17T05:43:45;16.40;76.80
484;DHT22;228;48.922;12.198;2022-10-17T05:46:16;16.50;76.00
484;DHT22;228;48.922;12.198;2022-10-17T05:48:42;16.50;75.70
484;DHT22;228;48.922;12.198;2022-10-17T05:51:09;16.60;75.70
484;DHT22;228;48.922;12.198;2022-10-17T05:53:40;16.70;75.50
484;DHT22;228;48.922;12.198;2022-10-17T05:56:11;16.60;76.50
484;DHT22;228;48.922;12.198;2022-10-17T05:58:43;16.60;76.20
484;DHT22;228;48.922;12.198;2022-10-17T06:01:19;16.70;76.40
484;DHT22;228;48.922;12.198;2022-10-17T06:03:47;16.70;76.10
484;DHT22;228;48.922;12.198;2022-10-17T06:06:14;16.80;76.00
484;DHT22;228;48.922;12.198;2022-10-17T06:08:43;16.80;75.70
484;DHT22;228;48.922;12.198;2022-10-17T06:11:13;16.90;75.60
484;DHT22;228;48.922;12.198;2022-10-17T06:13:40;16.90;75.70
484;DHT22;228;48.922;12.198;2022-10-17T06:16:12;16.90;76.70
484;DHT22;228;48.922;12.198;2022-10-17T06:18:38;17.10;75.70
484;DHT22;228;48.922;12.198;2022-10-17T06:21:07;17.00;75.70
484;DHT22;228;48.922;12.198;2022-10-17T06:23:38;17.10;76.00
484;DHT22;228;48.922;12.198;2022-10-17T06:26:18;17.10;75.40
484;DHT22;228;48.922;12.198;2022-10-17T06:28:44;17.30;75.60
484;DHT22;228;48.922;12.198;2022-10-17T06:31:16;17.40;75.70
484;DHT22;228;48.922;12.198;2022-10-17T06:33:42;17.40;75.90
484;DHT22;228;48.922;12.198;2022-10-17T06:36:12;17.40;75.80
484;DHT22;228;48.922;12.198;2022-10-17T06:38:39;17.50;76.20
484;DHT22;228;48.922;12.198;2022-10-17T06:41:13;17.50;76.60
484;DHT22;228;48.922;12.198;2022-10-17T06:43:41;17.50;76.00
484;DHT22;228;48.922;12.198;2022-10-17T06:46:29;17.50;76.00
484;DHT22;228;48.922;12.198;2022-10-17T06:49:01;17.60;76.10
484;DHT22;228;48.922;12.198;2022-10-17T06:52:01;17.70;75.70
484;DHT22;228;48.922;12.198;2022-10-17T06:54:45;17.80;75.40
484;DHT22;228;48.922;12.198;2022-10-17T06:57:49;17.90;75.40
484;DHT22;228;48.922;12.198;2022-10-17T07:00:27;17.90;75.30
484;DHT22;228;48.922;12.198;2022-10-17T07:02:55;17.90;75.70
484;DHT22;228;48.922;12.198;2022-10-17T07:05:22;18.00;76.20
484;DHT22;228;48.922;12.198;2022-10-17T07:07:48;17.90;76.30
484;DHT22;228;48.922;12.198;2022-10-17T07:10:14;18.00;76.60
484;DHT22;228;48.922;12.198;2022-10-17T07:12:40;18.20;76.50
484;DHT22;228;48.922;12.198;2022-10-17T07:15:07;18.20;76.40
484;DHT22;228;48.922;12.198;2022-10-17T07:17:33;17.90;77.80
484;DHT22;228;48.922;12.198;2022-10-17T07:19:59;17.90;77.10
484;DHT22;228;48.922;12.198;2022-10-17T07:22:26;18.10;77.20
484;DHT22;228;48.922;12.198;2022-10-17T07:24:58;18.00;77.10
484;DHT22;228;48.922;12.198;2022-10-17T07:27:40;18.00;77.80
484;DHT22;228;48.922;12.198;2022-10-17T07:30:07;18.20;78.20
484;DHT22;228;48.922;12.198;2022-10-17T07:32:37;17.80;78.20
484;DHT22;228;48.922;12.198;2022-10-17T07:35:04;18.10;78.70
484;DHT22;228;48.922;12.198;2022-10-17T07:37:30;18.30;78.00
484;DHT22;228;48.922;12.198;2022-10-17T07:39:58;18.60;77.50
484;DHT22;228;48.922;12.198;2022-10-17T07:42:25;18.70;76.70
484;DHT22;228;48.922;12.198;2022-10-17T07:44:56;18.90;75.90
484;DHT22;228;48.922;12.198;2022-10-17T07:47:24;18.70;75.60
484;DHT22;228;48.922;12.198;2022-10-17T07:49:52;18.70;76.30
484;DHT22;228;48.922;12.198;2022-10-17T07:52:18;18.80;77.10
484;DHT22;228;48.922;12.198;2022-10-17T07:54:44;18.80;76.90
484;DHT22;228;48.922;12.198;2022-10-17T07:57:10;18.80;76.40
484;DHT22;228;48.922;12.198;2022-10-17T07:59:38;18.90;76.70
484;DHT22;228;48.922;12.198;2022-10-17T08:02:19;18.80;77.00
484;DHT22;228;48.922;12.198;2022-10-17T08:04:47;18.80;77.20
484;DHT22;228;48.922;12.198;2022-10-17T08:07:13;18.50;78.80
484;DHT22;228;48.922;12.198;2022-10-17T08:09:41;19.10;78.20
484;DHT22;228;48.922;12.198;2022-10-17T08:12:08;19.30;77.10
484;DHT22;228;48.922;12.198;2022-10-17T08:14:37;19.70;77.50
484;DHT22;228;48.922;12.198;2022-10-17T08:17:04;20.00;75.50
484;DHT22;228;48.922;12.198;2022-10-17T08:19:30;19.80;76.00
484;DHT22;228;48.922;12.198;2022-10-17T08:21:56;19.50;76.00
484;DHT22;228;48.922;12.198;2022-10-17T08:24:35;19.40;76.50
484;DHT22;228;48.922;12.198;2022-10-17T08:27:13;19.90;76.50
484;DHT22;228;48.922;12.198;2022-10-17T08:29:39;20.80;74.30
484;DHT22;228;48.922;12.198;2022-10-17T08:32:08;21.30;71.90
484;DHT22;228;48.922;12.198;2022-10-17T08:34:34;21.80;69.60
484;DHT22;228;48.922;12.198;2022-10-17T08:37:00;21.60;70.10
484;DHT22;228;48.922;12.198;2022-10-17T08:39:26;22.00;70.50
484;DHT22;228;48.922;12.198;2022-10-17T08:47:42;21.30;72.60
484;DHT22;228;48.922;12.198;2022-10-17T08:53:21;21.60;69.60
484;DHT22;228;48.922;12.198;2022-10-17T08:55:54;22.00;70.10
484;DHT22;228;48.922;12.198;2022-10-17T08:58:27;22.10;69.50
484;DHT22;228;48.922;12.198;2022-10-17T09:01:33;21.70;70.50
484;DHT22;228;48.922;12.198;2022-10-17T09:18:31;21.50;71.30
484;DHT22;228;48.922;12.198;2022-10-17T09:21:20;21.70;71.10
484;DHT22;228;48.922;12.198;2022-10-17T09:24:37;21.70;71.40
484;DHT22;228;48.922;12.198;2022-10-17T09:27:23;22.30;70.70
484;DHT22;228;48.922;12.198;2022-10-17T09:33:25;22.00;70.30
484;DHT22;228;48.922;12.198;2022-10-17T09:35:54;21.50;71.00
484;DHT22;228;48.922;12.198;2022-10-17T09:38:24;21.40;70.80
484;DHT22;228;48.922;12.198;2022-10-17T09:40:55;21.50;70.80
484;DHT22;228;48.922;12.198;2022-10-17T09:43:23;21.90;70.50
484;DHT22;228;48.922;12.198;2022-10-17T09:51:30;21.30;70.70
484;DHT22;228;48.922;12.198;2022-10-17T09:54:02;21.40;70.90
484;DHT22;228;48.922;12.198;2022-10-17T09:56:29;22.00;69.00
484;DHT22;228;48.922;12.198;2022-10-17T09:58:56;22.40;66.90
484;DHT22;228;48.922;12.198;2022-10-17T10:04:12;22.90;66.30
484;DHT22;228;48.922;12.198;2022-10-17T10:06:59;23.00;65.80
484;DHT22;228;48.922;12.198;2022-10-17T10:09:29;23.00;66.10
484;DHT22;228;48.922;12.198;2022-10-17T10:11:59;22.80;66.40
484;DHT22;228;48.922;12.198;2022-10-17T10:14:32;23.10;65.00
484;DHT22;228;48.922;12.198;2022-10-17T10:17:01;23.50;63.80
484;DHT22;228;48.922;12.198;2022-10-17T10:19:32;23.00;65.10
484;DHT22;228;48.922;12.198;2022-10-17T10:22:05;23.00;65.60
484;DHT22;228;48.922;12.198;2022-10-17T10:24:44;22.50;67.70
484;DHT22;228;48.922;12.198;2022-10-17T10:27:17;23.20;66.20
484;DHT22;228;48.922;12.198;2022-10-17T10:29:51;23.70;64.20
484;DHT22;228;48.922;12.198;2022-10-17T10:32:26;24.20;62.50
484;DHT22;228;48.922;12.198;2022-10-17T10:37:42;24.00;64.60
484;DHT22;228;48.922;12.198;2022-10-17T10:40:19;24.00;63.00
484;DHT22;228;48.922;12.198;2022-10-17T10:42:52;23.90;64.30
484;DHT22;228;48.922;12.198;2022-10-17T10:45:27;23.50;64.30
484;DHT22;228;48.922;12.198;2022-10-17T10:47:57;23.30;63.80
484;DHT22;228;48.922;12.198;2022-10-17T10:53:33;23.90;64.40
484;DHT22;228;48.922;12.198;2022-10-17T11:01:41;24.80;61.80
484;DHT22;228;48.922;12.198;2022-10-17T11:07:09;24.50;61.40
484;DHT22;228;48.922;12.198;2022-10-17T11:09:55;24.80;61.10
484;DHT22;228;48.922;12.198;2022-10-17T11:12:39;25.40;60.70
484;DHT22;228;48.922;12.198;2022-10-17T11:15:48;26.10;57.60
484;DHT22;228;48.922;12.198;2022-10-17T11:18:25;28.70;50.40
484;DHT22;228;48.922;12.198;2022-10-17T11:24:21;32.20;40.90
484;DHT22;228;48.922;12.198;2022-10-17T11:26:59;33.90;38.20
484;DHT22;228;48.922;12.198;2022-10-17T11:29:31;35.20;36.80
484;DHT22;228;48.922;12.198;2022-10-17T11:32:18;35.30;35.80
484;DHT22;228;48.922;12.198;2022-10-17T11:34:51;37.90;31.50
484;DHT22;228;48.922;12.198;2022-10-17T11:37:24;39.50;28.80
484;DHT22;228;48.922;12.198;2022-10-17T11:39:57;39.40;28.50
484;DHT22;228;48.922;12.198;2022-10-17T11:42:33;37.80;29.30
484;DHT22;228;48.922;12.198;2022-10-17T11:45:14;36.90;30.70
484;DHT22;228;48.922;12.198;2022-10-17T11:47:56;36.40;32.20
484;DHT22;228;48.922;12.198;2022-10-17T11:50:29;37.90;31.00
484;DHT22;228;48.922;12.198;2022-10-17T11:53:05;38.80;28.80
484;DHT22;228;48.922;12.198;2022-10-17T11:55:35;38.90;28.50
484;DHT22;228;48.922;12.198;2022-10-17T12:01:33;39.90;27.90
484;DHT22;228;48.922;12.198;2022-10-17T12:04:21;39.30;27.60
484;DHT22;228;48.922;12.198;2022-10-17T12:07:34;38.60;29.30
484;DHT22;228;48.922;12.198;2022-10-17T12:10:15;38.50;29.60
484;DHT22;228;48.922;12.198;2022-10-17T12:12:46;37.30;30.60
484;DHT22;228;48.922;12.198;2022-10-17T12:17:55;38.30;29.70
484;DHT22;228;48.922;12.198;2022-10-17T12:20:28;38.40;29.50
484;DHT22;228;48.922;12.198;2022-10-17T12:23:18;38.40;29.80
484;DHT22;228;48.922;12.198;2022-10-17T12:33:54;36.30;31.60
484;DHT22;228;48.922;12.198;2022-10-17T12:49:48;31.90;39.70
484;DHT22;228;48.922;12.198;2022-10-17T13:00:18;32.70;37.40
484;DHT22;228;48.922;12.198;2022-10-17T13:03:19;32.90;37.40
484;DHT22;228;48.922;12.198;2022-10-17T13:05:52;32.90;37.50
484;DHT22;228;48.922;12.198;2022-10-17T13:08:41;33.80;36.90
484;DHT22;228;48.922;12.198;2022-10-17T13:11:09;33.70;36.90
484;DHT22;228;48.922;12.198;2022-10-17T13:13:45;34.10;36.30
484;DHT22;228;48.922;12.198;2022-10-17T13:16:37;33.80;36.10
484;DHT22;228;48.922;12.198;2022-10-17T13:19:14;33.50;37.50
484;DHT22;228;48.922;12.198;2022-10-17T13:21:58;33.20;38.80
484;DHT22;228;48.922;12.198;2022-10-17T13:24:31;33.60;37.60
484;DHT22;228;48.922;12.198;2022-10-17T13:27:02;33.80;37.20
484;DHT22;228;48.922;12.198;2022-10-17T13:29:30;34.20;36.90
484;DHT22;228;48.922;12.198;2022-10-17T13:32:04;34.30;37.30
484;DHT22;228;48.922;12.198;2022-10-17T13:34:32;35.30;35.40
484;DHT22;228;48.922;12.198;2022-10-17T13:37:02;35.60;33.70
484;DHT22;228;48.922;12.198;2022-10-17T13:39:35;34.30;36.50
484;DHT22;228;48.922;12.198;2022-10-17T13:42:04;33.80;37.20
484;DHT22;228;48.922;12.198;2022-10-17T13:44:34;33.90;37.50
484;DHT22;228;48.922;12.198;2022-10-17T13:47:01;34.40;36.80
484;DHT22;228;48.922;12.198;2022-10-17T13:52:02;36.80;32.80
484;DHT22;228;48.922;12.198;2022-10-17T13:54:40;37.00;32.30
484;DHT22;228;48.922;12.198;2022-10-17T13:57:19;37.10;32.20
484;DHT22;228;48.922;12.198;2022-10-17T13:59:59;37.10;32.00
484;DHT22;228;48.922;12.198;2022-10-17T14:02:46;37.10;32.10
484;DHT22;228;48.922;12.198;2022-10-17T14:05:18;36.60;32.60
484;DHT22;228;48.922;12.198;2022-10-17T14:07:49;36.30;33.20
484;DHT22;228;48.922;12.198;2022-10-17T14:12:53;35.20;35.00
484;DHT22;228;48.922;12.198;2022-10-17T14:15:27;35.20;34.60
484;DHT22;228;48.922;12.198;2022-10-17T14:18:00;34.30;36.30
484;DHT22;228;48.922;12.198;2022-10-17T14:20:28;33.70;37.10
484;DHT22;228;48.922;12.198;2022-10-17T14:22:55;32.70;38.80
484;DHT22;228;48.922;12.198;2022-10-17T14:25:33;31.90;40.70
484;DHT22;228;48.922;12.198;2022-10-17T14:28:13;31.80;40.30
484;DHT22;228;48.922;12.198;2022-10-17T14:30:45;32.80;39.00
484;DHT22;228;48.922;12.198;2022-10-17T14:33:19;34.90;35.60
484;DHT22;228;48.922;12.198;2022-10-17T14:35:55;35.40;33.80
484;DHT22;228;48.922;12.198;2022-10-17T14:38:23;36.30;32.50
484;DHT22;228;48.922;12.198;2022-10-17T14:40:51;36.10;32.80
484;DHT22;228;48.922;12.198;2022-10-17T14:43:23;36.10;32.90
484;DHT22;228;48.922;12.198;2022-10-17T14:45:51;37.10;31.40
484;DHT22;228;48.922;12.198;2022-10-17T14:48:21;38.70;29.80
484;DHT22;228;48.922;12.198;2022-10-17T14:51:10;38.60;29.10
484;DHT22;228;48.922;12.198;2022-10-17T14:53:38;38.30;29.00
484;DHT22;228;48.922;12.198;2022-10-17T14:56:23;36.90;31.20
484;DHT22;228;48.922;12.198;2022-10-17T14:58:50;36.40;32.20
484;DHT22;228;48.922;12.198;2022-10-17T15:01:18;35.60;33.30
484;DHT22;228;48.922;12.198;2022-10-17T15:03:44;34.60;35.00
484;DHT22;228;48.922;12.198;2022-10-17T15:06:23;33.70;36.30
484;DHT22;228;48.922;12.198;2022-10-17T15:08:52;33.10;37.80
484;DHT22;228;48.922;12.198;2022-10-17T15:11:18;31.70;40.00
484;DHT22;228;48.922;12.198;2022-10-17T15:13:44;30.30;42.90
484;DHT22;228;48.922;12.198;2022-10-17T15:16:25;29.40;44.90
484;DHT22;228;48.922;12.198;2022-10-17T15:18:53;28.70;46.50
484;DHT22;228;48.922;12.198;2022-10-17T15:21:21;28.40;47.80
484;DHT22;228;48.922;12.198;2022-10-17T15:23:49;28.40;47.90
484;DHT22;228;48.922;12.198;2022-10-17T15:26:18;27.90;48.60
484;DHT22;228;48.922;12.198;2022-10-17T15:28:52;27.50;50.00
484;DHT22;228;48.922;12.198;2022-10-17T15:31:23;27.40;50.00
484;DHT22;228;48.922;12.198;2022-10-17T15:33:51;27.20;50.30
484;DHT22;228;48.922;12.198;2022-10-17T15:36:31;26.50;52.00
484;DHT22;228;48.922;12.198;2022-10-17T15:39:01;25.80;54.30
484;DHT22;228;48.922;12.198;2022-10-17T15:41:29;25.70;54.40
484;DHT22;228;48.922;12.198;2022-10-17T15:43:56;25.70;54.30
484;DHT22;228;48.922;12.198;2022-10-17T15:46:28;25.60;54.70
484;DHT22;228;48.922;12.198;2022-10-17T15:48:56;25.70;54.80
484;DHT22;228;48.922;12.198;2022-10-17T15:51:27;25.70;55.40
484;DHT22;228;48.922;12.198;2022-10-17T15:53:53;25.40;54.70
484;DHT22;228;48.922;12.198;2022-10-17T15:56:25;25.10;56.20
484;DHT22;228;48.922;12.198;2022-10-17T15:58:52;24.90;57.00
484;DHT22;228;48.922;12.198;2022-10-17T16:01:21;24.70;57.50
484;DHT22;228;48.922;12.198;2022-10-17T16:03:49;24.40;58.50
484;DHT22;228;48.922;12.198;2022-10-17T16:06:17;24.10;59.30
484;DHT22;228;48.922;12.198;2022-10-17T16:08:45;23.70;60.50
484;DHT22;228;48.922;12.198;2022-10-17T16:13:52;23.50;61.00
484;DHT22;228;48.922;12.198;2022-10-17T16:16:20;23.50;61.30
484;DHT22;228;48.922;12.198;2022-10-17T16:18:47;23.40;61.60
484;DHT22;228;48.922;12.198;2022-10-17T16:21:15;23.30;61.90
484;DHT22;228;48.922;12.198;2022-10-17T16:23:42;23.20;62.80
484;DHT22;228;48.922;12.198;2022-10-17T16:26:08;23.00;64.10
484;DHT22;228;48.922;12.198;2022-10-17T16:28:35;22.80;63.60
484;DHT22;228;48.922;12.198;2022-10-17T16:31:01;22.70;64.10
484;DHT22;228;48.922;12.198;2022-10-17T16:33:27;22.50;65.10
484;DHT22;228;48.922;12.198;2022-10-17T16:35:53;22.30;66.10
484;DHT22;228;48.922;12.198;2022-10-17T16:38:19;22.10;66.90
484;DHT22;228;48.922;12.198;2022-10-17T16:40:45;22.00;67.40
484;DHT22;228;48.922;12.198;2022-10-17T16:43:11;21.80;67.70
484;DHT22;228;48.922;12.198;2022-10-17T16:45:38;21.70;67.90
484;DHT22;228;48.922;12.198;2022-10-17T16:48:04;21.50;67.90
484;DHT22;228;48.922;12.198;2022-10-17T16:50:30;21.40;68.60
484;DHT22;228;48.922;12.198;2022-10-17T16:53:00;21.20;70.00
484;DHT22;228;48.922;12.198;2022-10-17T16:55:28;21.10;70.20
484;DHT22;228;48.922;12.198;2022-10-17T16:57:54;21.00;71.00
484;DHT22;228;48.922;12.198;2022-10-17T17:00:20;20.80;71.40
484;DHT22;228;48.922;12.198;2022-10-17T17:02:46;20.70;71.50
484;DHT22;228;48.922;12.198;2022-10-17T17:05:13;20.50;72.20
484;DHT22;228;48.922;12.198;2022-10-17T17:07:40;20.40;72.60
484;DHT22;228;48.922;12.198;2022-10-17T17:10:06;20.30;72.70
484;DHT22;228;48.922;12.198;2022-10-17T17:12:34;20.20;72.50
484;DHT22;228;48.922;12.198;2022-10-17T17:15:01;20.10;73.00
484;DHT22;228;48.922;12.198;2022-10-17T17:17:27;20.00;73.20
484;DHT22;228;48.922;12.198;2022-10-17T17:19:53;19.80;73.50
484;DHT22;228;48.922;12.198;2022-10-17T17:22:20;19.70;74.60
484;DHT22;228;48.922;12.198;2022-10-17T17:24:46;19.70;74.30
484;DHT22;228;48.922;12.198;2022-10-17T17:27:12;19.80;74.20
484;DHT22;228;48.922;12.198;2022-10-17T17:29:38;19.70;74.20
484;DHT22;228;48.922;12.198;2022-10-17T17:32:04;19.60;74.90
484;DHT22;228;48.922;12.198;2022-10-17T17:34:35;19.60;75.90
484;DHT22;228;48.922;12.198;2022-10-17T17:37:02;19.60;75.80
484;DHT22;228;48.922;12.198;2022-10-17T17:39:28;19.50;75.10
484;DHT22;228;48.922;12.198;2022-10-17T17:41:54;19.50;75.20
484;DHT22;228;48.922;12.198;2022-10-17T17:44:20;19.40;75.80
484;DHT22;228;48.922;12.198;2022-10-17T17:46:46;19.40;76.60
484;DHT22;228;48.922;12.198;2022-10-17T17:49:12;19.40;75.60
484;DHT22;228;48.922;12.198;2022-10-17T17:51:38;19.40;75.10
484;DHT22;228;48.922;12.198;2022-10-17T17:54:06;19.30;75.20
484;DHT22;228;48.922;12.198;2022-10-17T17:56:36;19.30;75.90
484;DHT22;228;48.922;12.198;2022-10-17T17:59:02;19.20;75.70
484;DHT22;228;48.922;12.198;2022-10-17T18:01:30;19.20;75.70
484;DHT22;228;48.922;12.198;2022-10-17T18:03:59;19.20;75.70
484;DHT22;228;48.922;12.198;2022-10-17T18:06:26;19.10;75.40
484;DHT22;228;48.922;12.198;2022-10-17T18:08:55;19.10;75.80
484;DHT22;228;48.922;12.198;2022-10-17T18:11:23;19.00;75.90
484;DHT22;228;48.922;12.198;2022-10-17T18:13:54;19.00;76.30
484;DHT22;228;48.922;12.198;2022-10-17T18:16:22;19.00;76.50
484;DHT22;228;48.922;12.198;2022-10-17T18:18:49;19.00;76.50
484;DHT22;228;48.922;12.198;2022-10-17T18:21:16;19.00;75.90
484;DHT22;228;48.922;12.198;2022-10-17T18:23:44;18.90;76.10
484;DHT22;228;48.922;12.198;2022-10-17T18:26:11;18.90;77.50
484;DHT22;228;48.922;12.198;2022-10-17T18:28:39;18.90;78.10
484;DHT22;228;48.922;12.198;2022-10-17T18:31:15;18.90;78.10
484;DHT22;228;48.922;12.198;2022-10-17T18:33:53;18.90;77.80
484;DHT22;228;48.922;12.198;2022-10-17T18:36:21;18.90;77.10
484;DHT22;228;48.922;12.198;2022-10-17T18:38:48;18.80;77.00
484;DHT22;228;48.922;12.198;2022-10-17T18:41:16;18.70;76.90
484;DHT22;228;48.922;12.198;2022-10-17T18:43:45;18.70;76.90
484;DHT22;228;48.922;12.198;2022-10-17T18:46:24;18.60;77.90
484;DHT22;228;48.922;12.198;2022-10-17T18:48:52;18.70;78.70
484;DHT22;228;48.922;12.198;2022-10-17T18:51:21;18.70;78.70
484;DHT22;228;48.922;12.198;2022-10-17T18:53:51;18.70;78.70
484;DHT22;228;48.922;12.198;2022-10-17T18:56:19;18.60;79.50
484;DHT22;228;48.922;12.198;2022-10-17T18:58:46;18.70;78.70
484;DHT22;228;48.922;12.198;2022-10-17T19:01:15;18.80;78.70
484;DHT22;228;48.922;12.198;2022-10-17T19:03:44;18.70;77.80